Superior, Montana
Current Conditions -  °F | °C
As of 2:53 PM on Sunday 21 Dec 2014 (Local Time) from KMSO Reporting Station
Scattered Clouds Scattered Clouds  
Wind Chill: 29°   Ceiling: Unl
Heat Index: 38°   Visibility: 10mi
Dew Point: 34°   Wind: 17mph
Humidity: 86%   Direction: 300°WNW
Pressure: 29.73"   Gusts: NA
Location:  47.19°N, 114.89°W
Report Text: KMSO 212153Z 30015KT 10SM SCT035 SCT070 03/01 A2973 RMK AO2 RAE44 SLP086 P0001 T00330011 $
Loading
Personal Weather Stations






























Interactive Weather Map New forecast layout! Learn more

10-Day Weather Forecast

Advertisements
Track Severe Weather on mobile